Time;durP1;ratioP1;P1;durP2;ratioP2;P2;SDS_P1;SDS_P2;PMS_P1;PMS_P2;Temp;Humidity;BMP_temperature;BMP_pressure;BME280_temperature;BME280_humidity;BME280_pressure;Samples;Min_cycle;Max_cycle;Signal;HPM_P1;HPM_P2
2022/03/05 00:01:25;;;;;;;0.00;0.00;;;;;;;5.23;65.72;100975.28;6218124;23;20432;-73
2022/03/05 00:03:50;;;;;;;0.00;0.00;;;;;;;5.20;65.84;100978.44;6216315;23;20034;-73
2022/03/05 00:06:16;;;;;;;0.00;0.00;;;;;;;5.16;65.72;100978.00;6218435;23;20004;-75
2022/03/05 00:08:41;;;;;;;0.00;0.00;;;;;;;5.11;66.03;100983.25;6217756;23;20044;-75
2022/03/05 00:11:07;;;;;;;0.00;0.00;;;;;;;5.05;65.78;100982.25;6191610;23;20101;-76
2022/03/05 00:13:33;;;;;;;0.00;0.00;;;;;;;5.04;66.26;100977.88;6217446;23;20050;-75
2022/03/05 00:15:59;;;;;;;0.00;0.00;;;;;;;5.04;66.23;100991.41;6213711;23;20004;-75
2022/03/05 00:18:25;;;;;;;0.00;0.00;;;;;;;5.01;66.10;100981.00;6216965;23;20109;-75
2022/03/05 00:20:52;;;;;;;0.00;0.00;;;;;;;4.98;66.55;100980.59;6213345;23;20220;-77
2022/03/05 00:23:18;;;;;;;0.00;0.00;;;;;;;4.94;66.79;100982.91;6216056;23;20009;-75
2022/03/05 00:25:43;;;;;;;0.00;0.00;;;;;;;4.93;66.86;100989.38;6184337;23;20022;-77
2022/03/05 00:28:09;;;;;;;0.00;0.00;;;;;;;4.89;66.38;100988.97;6218849;22;20032;-76
2022/03/05 00:30:35;;;;;;;0.00;0.00;;;;;;;4.88;66.20;100991.91;6214540;23;20011;-77
2022/03/05 00:33:00;;;;;;;0.00;0.00;;;;;;;4.85;66.64;101000.47;6243245;23;20007;-75
2022/03/05 00:35:26;;;;;;;0.00;0.00;;;;;;;4.82;66.83;100990.03;6244795;23;20331;-76
2022/03/05 00:37:52;;;;;;;0.00;0.00;;;;;;;4.75;67.08;100989.25;6245169;23;20030;-77
2022/03/05 00:40:17;;;;;;;0.00;0.00;;;;;;;4.74;67.48;100984.88;6220097;23;20036;-77
2022/03/05 00:42:45;;;;;;;0.00;0.00;;;;;;;4.71;66.95;100986.13;6219020;23;20035;-76
2022/03/05 00:45:13;;;;;;;0.00;0.00;;;;;;;4.64;67.52;100983.41;6219830;23;20090;-76
2022/03/05 00:47:41;;;;;;;0.00;0.00;;;;;;;4.61;67.51;100974.91;6246135;23;20011;-76
2022/03/05 00:50:09;;;;;;;0.00;0.00;;;;;;;4.62;67.10;100988.22;6214673;23;19996;-77
2022/03/05 00:52:41;;;;;;;0.00;0.00;;;;;;;4.58;67.86;100976.16;6218381;23;20427;-77
2022/03/05 00:55:07;;;;;;;0.00;0.00;;;;;;;4.61;67.74;100989.25;6244291;23;20123;-77
2022/03/05 00:57:35;;;;;;;0.00;0.00;;;;;;;4.58;67.80;100981.56;6244693;23;20008;-78
2022/03/05 01:00:07;;;;;;;0.00;0.00;;;;;;;4.59;68.08;100991.38;6194072;23;20091;-76
2022/03/05 01:02:34;;;;;;;0.00;0.00;;;;;;;4.51;67.37;100992.44;6243088;23;20008;-76
2022/03/05 01:05:03;;;;;;;0.00;0.00;;;;;;;4.52;68.17;100993.25;6245959;23;20004;-75
2022/03/05 01:07:28;;;;;;;0.00;0.00;;;;;;;4.46;67.53;100992.22;6217908;23;20035;-75
2022/03/05 01:09:54;;;;;;;0.00;0.00;;;;;;;4.47;67.61;100996.59;6217478;23;20008;-75
2022/03/05 01:12:22;;;;;;;0.00;0.00;;;;;;;4.42;68.03;100990.16;6215969;23;20023;-75
2022/03/05 01:14:48;;;;;;;0.00;0.00;;;;;;;4.44;68.27;101004.31;6214537;23;20392;-76
2022/03/05 01:17:13;;;;;;;0.00;0.00;;;;;;;4.40;67.90;100998.50;6218756;23;20031;-75
2022/03/05 01:19:39;;;;;;;0.00;0.00;;;;;;;4.38;68.53;101008.72;6242446;23;20004;-74
2022/03/05 01:22:05;;;;;;;0.00;0.00;;;;;;;4.40;68.66;101011.22;6246717;23;20004;-75
2022/03/05 01:24:35;;;;;;;0.00;0.00;;;;;;;4.31;68.39;101002.47;6226954;23;20427;-75
2022/03/05 01:27:03;;;;;;;0.00;0.00;;;;;;;4.21;68.17;101008.31;6248150;23;20011;-76
2022/03/05 01:29:29;;;;;;;0.00;0.00;;;;;;;4.25;68.56;101024.94;6251314;22;20403;-78
2022/03/05 01:31:54;;;;;;;0.00;0.00;;;;;;;4.25;69.04;101024.94;6220477;23;20019;-77
2022/03/05 01:34:20;;;;;;;0.00;0.00;;;;;;;4.28;68.60;101029.94;6192163;23;20649;-78
2022/03/05 01:36:46;;;;;;;0.00;0.00;;;;;;;4.18;69.11;101019.56;6206667;23;20027;-77
2022/03/05 01:39:17;;;;;;;0.00;0.00;;;;;;;4.18;68.64;101016.84;6258011;23;20000;-77
2022/03/05 01:41:48;;;;;;;0.00;0.00;;;;;;;4.24;69.10;101026.00;6232931;23;20008;-78
2022/03/05 01:44:13;;;;;;;0.00;0.00;;;;;;;4.20;68.74;101022.88;6230277;23;20019;-79
2022/03/05 01:46:42;;;;;;;0.00;0.00;;;;;;;4.22;68.53;101025.38;6247869;23;20412;-77
2022/03/05 01:49:10;;;;;;;0.00;0.00;;;;;;;4.20;68.89;101020.16;6189983;23;20061;-77
2022/03/05 01:51:37;;;;;;;0.00;0.00;;;;;;;4.31;69.24;101027.66;6244614;23;20004;-78
2022/03/05 01:54:03;;;;;;;0.00;0.00;;;;;;;4.44;69.25;101024.13;6246223;23;20003;-77
2022/03/05 01:56:29;;;;;;;0.00;0.00;;;;;;;4.52;69.27;101034.72;6246063;23;20000;-76
2022/03/05 01:58:55;;;;;;;0.00;0.00;;;;;;;4.54;68.96;101029.06;6245338;23;20004;-76
2022/03/05 02:01:23;;;;;;;0.00;0.00;;;;;;;4.58;68.98;101033.03;6192804;23;20008;-77
2022/03/05 02:03:50;;;;;;;0.00;0.00;;;;;;;4.65;69.68;101036.56;6220451;23;20493;-76
2022/03/05 02:06:15;;;;;;;0.00;0.00;;;;;;;4.70;69.42;101034.06;6193817;23;20107;-77
2022/03/05 02:08:41;;;;;;;0.00;0.00;;;;;;;4.74;69.24;101033.63;6217477;23;20055;-77
2022/03/05 02:11:11;;;;;;;0.00;0.00;;;;;;;4.83;69.24;101032.34;6217337;23;20008;-76
2022/03/05 02:13:36;;;;;;;0.00;0.00;;;;;;;4.88;69.67;101036.09;6193760;23;20082;-76
2022/03/05 02:16:03;;;;;;;0.00;0.00;;;;;;;4.94;70.03;101042.53;6219335;23;20012;-77
2022/03/05 02:18:29;;;;;;;0.00;0.00;;;;;;;5.01;69.71;101040.66;6219926;23;20022;-76
2022/03/05 02:20:55;;;;;;;0.00;0.00;;;;;;;5.10;69.32;101048.56;6245741;23;20004;-78
2022/03/05 02:23:23;;;;;;;0.00;0.00;;;;;;;5.20;69.57;101038.91;6245702;23;20046;-74
2022/03/05 02:26:02;;;;;;;0.00;0.00;;;;;;;5.25;69.56;101040.97;6169288;23;20004;-77
2022/03/05 02:28:29;;;;;;;0.00;0.00;;;;;;;5.14;69.02;101031.63;6250090;22;20012;-75
2022/03/05 02:30:55;;;;;;;0.00;0.00;;;;;;;5.11;69.23;101032.06;6222235;23;20004;-75
2022/03/05 02:33:21;;;;;;;0.00;0.00;;;;;;;5.12;68.90;101041.03;6217241;23;20007;-77
2022/03/05 02:35:52;;;;;;;0.00;0.00;;;;;;;5.02;68.81;101031.47;6192178;23;20008;-77
2022/03/05 02:38:19;;;;;;;0.00;0.00;;;;;;;5.02;69.10;101031.47;6193710;23;20008;-76
2022/03/05 02:40:53;;;;;;;0.00;0.00;;;;;;;5.04;69.13;101045.63;6193560;23;20008;-77
2022/03/05 02:43:26;;;;;;;0.00;0.00;;;;;;;4.93;69.28;101038.16;6190526;23;20027;-77
2022/03/05 02:45:52;;;;;;;0.00;0.00;;;;;;;4.89;68.45;101042.34;6244796;23;20000;-79
2022/03/05 02:48:19;;;;;;;0.00;0.00;;;;;;;4.75;68.82;101030.72;6217115;23;20012;-78
2022/03/05 02:50:48;;;;;;;0.00;0.00;;;;;;;4.70;68.70;101034.06;6215388;23;20008;-78
2022/03/05 02:53:22;;;;;;;0.00;0.00;;;;;;;4.61;69.09;101024.47;6196220;23;20003;-77
2022/03/05 02:55:55;;;;;;;0.00;0.00;;;;;;;4.41;68.83;101012.84;6221149;23;20011;-77
2022/03/05 02:58:21;;;;;;;0.00;0.00;;;;;;;4.34;69.01;101016.41;6194696;23;20008;-78
2022/03/05 03:00:50;;;;;;;0.00;0.00;;;;;;;4.29;68.99;101020.78;6194939;23;20087;-79
2022/03/05 03:03:17;;;;;;;0.00;0.00;;;;;;;4.17;69.14;101023.28;6221619;23;20069;-78
2022/03/05 03:05:43;;;;;;;0.00;0.00;;;;;;;4.13;69.12;101022.03;6199350;23;20012;-78
2022/03/05 03:08:11;;;;;;;0.00;0.00;;;;;;;4.12;69.12;101042.88;6249208;23;20007;-74
2022/03/05 03:10:57;;;;;;;;;;;;;;;;;;;;;
2022/03/05 03:13:22;;;;;;;0.00;0.00;;;;;;;3.91;69.63;101030.34;6219566;23;20079;-72
2022/03/05 03:15:48;;;;;;;0.00;0.00;;;;;;;3.76;69.64;101021.63;6240681;23;20332;-75
2022/03/05 03:18:25;;;;;;;0.00;0.00;;;;;;;3.75;70.13;101022.66;6240677;23;20004;-73
2022/03/05 03:20:54;;;;;;;0.00;0.00;;;;;;;3.71;69.74;101024.09;6215761;23;20380;-74
2022/03/05 03:23:29;;;;;;;0.00;0.00;;;;;;;3.60;70.25;101017.44;6241914;23;20001;-75
2022/03/05 03:25:54;;;;;;;;;;;;;;;3.63;70.50;101034.06;6238383;23;20028;-74
2022/03/05 03:28:30;;;;;;;0.00;0.00;;;;;;;3.46;70.39;101011.16;6236782;22;19912;-73
2022/03/05 03:31:21;;;;;;;;;;;;;;;;;;;;;
2022/03/05 03:33:47;;;;;;;0.00;0.00;;;;;;;3.39;71.21;101026.50;6242851;23;20079;-71
2022/03/05 03:36:12;;;;;;;0.00;0.00;;;;;;;3.42;71.35;101037.78;6210526;23;20042;-71
2022/03/05 03:38:40;;;;;;;0.00;0.00;;;;;;;3.37;71.61;101021.31;6215597;23;20039;-72
2022/03/05 03:41:08;;;;;;;0.00;0.00;;;;;;;3.38;71.53;101033.81;6235962;23;20003;-71
2022/03/05 03:43:35;;;;;;;0.00;0.00;;;;;;;3.31;71.32;101028.41;6244770;23;20012;-73
2022/03/05 03:46:04;;;;;;;0.00;0.00;;;;;;;3.31;72.00;101036.50;6242845;23;20001;-73
2022/03/05 03:48:45;;;;;;;0.00;0.00;;;;;;;3.28;72.04;101031.47;6264791;23;20004;-73
2022/03/05 03:51:10;;;;;;;0.00;0.00;;;;;;;3.24;71.97;101024.84;6256134;23;20004;-75
2022/03/05 03:53:36;;;;;;;0.00;0.00;;;;;;;3.21;71.78;101030.63;6245394;23;20425;-73
2022/03/05 03:56:02;;;;;;;0.00;0.00;;;;;;;3.21;72.41;101041.44;6167454;23;20012;-74
2022/03/05 03:58:32;;;;;;;0.00;0.00;;;;;;;3.10;72.63;101028.53;6217555;23;20032;-75
2022/03/05 04:00:58;;;;;;;0.00;0.00;;;;;;;3.20;72.61;101056.00;6246249;23;20004;-75
2022/03/05 04:03:23;;;;;;;0.00;0.00;;;;;;;3.21;72.59;101052.25;6212049;23;20019;-74
2022/03/05 04:05:49;;;;;;;0.00;0.00;;;;;;;3.24;72.77;101051.88;6218736;23;20074;-74
2022/03/05 04:10:58;;;;;;;0.00;0.00;;;;;;;3.27;72.65;101056.00;6245540;23;20016;-73
2022/03/05 04:13:24;;;;;;;0.00;0.00;;;;;;;3.26;72.64;101055.19;6218294;23;20323;-75
2022/03/05 04:15:50;;;;;;;0.00;0.00;;;;;;;3.23;72.59;101047.50;6246678;23;20489;-74
2022/03/05 04:18:15;;;;;;;0.00;0.00;;;;;;;3.28;72.74;101055.81;6246920;23;20038;-76
2022/03/05 04:20:40;;;;;;;0.00;0.00;;;;;;;3.26;72.70;101055.19;6244504;23;20079;-75
2022/03/05 04:23:06;;;;;;;0.00;0.00;;;;;;;3.27;72.93;101067.69;6195367;23;20012;-76
2022/03/05 04:25:32;;;;;;;0.00;0.00;;;;;;;3.26;73.29;101066.00;6246955;23;20083;-75
2022/03/05 04:27:57;;;;;;;0.00;0.00;;;;;;;3.29;73.15;101065.59;6195743;23;20012;-77
2022/03/05 04:30:23;;;;;;;0.00;0.00;;;;;;;3.32;72.83;101072.47;6218610;23;20014;-76
2022/03/05 04:32:48;;;;;;;0.00;0.00;;;;;;;3.32;73.04;101076.00;6248439;23;20070;-77
2022/03/05 04:35:17;;;;;;;0.00;0.00;;;;;;;3.32;72.74;101070.59;6217686;23;20020;-78
2022/03/05 04:37:53;;;;;;;;;;;;;;;;;;;;;
2022/03/05 04:40:19;;;;;;;0.00;0.00;;;;;;;3.31;73.19;101063.53;6246745;23;20144;-76
2022/03/05 04:42:50;;;;;;;0.00;0.00;;;;;;;3.34;73.12;101072.28;6220523;23;20004;-75
2022/03/05 04:45:15;;;;;;;0.00;0.00;;;;;;;3.30;73.15;101061.88;6228205;23;20411;-75
2022/03/05 04:47:41;;;;;;;0.00;0.00;;;;;;;3.27;73.63;101058.72;6224037;23;20094;-75
2022/03/05 04:50:08;;;;;;;0.00;0.00;;;;;;;3.34;73.77;101081.19;6196353;23;20008;-75
2022/03/05 04:52:34;;;;;;;0.00;0.00;;;;;;;3.34;73.21;101070.38;6221322;23;20505;-75
2022/03/05 04:55:07;;;;;;;0.00;0.00;;;;;;;3.39;73.53;101069.78;6220918;23;19999;-76
2022/03/05 04:57:33;;;;;;;0.00;0.00;;;;;;;3.40;73.22;101066.91;6220485;23;20000;-74
2022/03/05 04:59:59;;;;;;;0.00;0.00;;;;;;;3.39;73.58;101064.38;6196487;23;20061;-74
2022/03/05 05:02:24;;;;;;;0.00;0.00;;;;;;;3.44;73.54;101073.53;6221000;23;20012;-74
2022/03/05 05:04:50;;;;;;;0.00;0.00;;;;;;;3.45;73.61;101069.00;6232116;23;20008;-77
2022/03/05 05:07:16;;;;;;;0.00;0.00;;;;;;;3.42;74.28;101069.41;6259963;23;20008;-75
2022/03/05 05:09:42;;;;;;;0.00;0.00;;;;;;;3.37;73.82;101074.56;6221167;23;20015;-75
2022/03/05 05:12:08;;;;;;;0.00;0.00;;;;;;;3.26;74.25;101063.31;6221977;23;20444;-75
2022/03/05 05:14:34;;;;;;;0.00;0.00;;;;;;;3.25;74.01;101064.31;6222596;23;20077;-75
2022/03/05 05:16:59;;;;;;;0.00;0.00;;;;;;;3.25;74.22;101071.63;6219619;23;20004;-75
2022/03/05 05:19:28;;;;;;;0.00;0.00;;;;;;;3.25;74.25;101077.03;6235279;23;20043;-75
2022/03/05 05:21:59;;;;;;;0.00;0.00;;;;;;;3.20;74.24;101088.44;6217879;23;20020;-76
2022/03/05 05:24:34;;;;;;;0.00;0.00;;;;;;;3.13;74.08;101071.34;6219186;23;20012;-74
2022/03/05 05:27:03;;;;;;;0.00;0.00;;;;;;;3.13;74.71;101076.75;6217391;23;20039;-72
2022/03/05 05:29:29;;;;;;;0.00;0.00;;;;;;;3.21;74.57;101086.56;6255282;22;20245;-78
2022/03/05 05:31:55;;;;;;;0.00;0.00;;;;;;;3.18;74.61;101084.25;6235619;23;20008;-76
2022/03/05 05:34:21;;;;;;;0.00;0.00;;;;;;;3.28;74.79;101090.13;6209924;23;20008;-77
2022/03/05 05:36:47;;;;;;;0.00;0.00;;;;;;;3.26;74.83;101092.22;6248615;23;19999;-74
2022/03/05 05:39:13;;;;;;;0.00;0.00;;;;;;;3.32;74.88;101103.03;6216528;23;20008;-74
2022/03/05 05:41:39;;;;;;;0.00;0.00;;;;;;;3.30;74.82;101094.31;6220141;23;20000;-72
2022/03/05 05:44:10;;;;;;;0.00;0.00;;;;;;;3.31;74.54;101095.97;6194109;23;20009;-75
2022/03/05 05:46:38;;;;;;;2.05;1.95;;;;;;;3.35;74.67;101100.97;6247410;23;20008;-72
2022/03/05 05:49:04;;;;;;;0.00;0.00;;;;;;;3.35;74.72;101112.63;6222932;23;20007;-74
2022/03/05 05:51:32;;;;;;;0.00;0.00;;;;;;;3.40;75.07;101106.59;6227368;23;20012;-74
2022/03/05 05:54:01;;;;;;;0.00;0.00;;;;;;;3.45;74.98;101101.44;6248964;23;20003;-76
2022/03/05 05:56:35;;;;;;;0.00;0.00;;;;;;;3.60;75.22;101114.81;6194165;23;20019;-74
2022/03/05 05:59:04;;;;;;;0.00;0.00;;;;;;;3.66;75.27;101119.38;6193264;23;20483;-74
2022/03/05 06:01:34;;;;;;;0.00;0.00;;;;;;;3.70;74.74;101122.53;6221485;23;20000;-75
2022/03/05 06:04:00;;;;;;;0.00;0.00;;;;;;;3.67;75.15;101116.47;6218585;23;20419;-75
2022/03/05 06:06:26;;;;;;;0.00;0.00;;;;;;;3.67;74.85;101111.06;6245527;23;20065;-74
2022/03/05 06:09:04;;;;;;;;;;;;;;;;;;;;;
2022/03/05 06:11:43;;;;;;;0.00;0.00;;;;;;;3.85;74.94;101125.91;6222964;23;20328;-75
2022/03/05 06:14:13;;;;;;;0.00;0.00;;;;;;;3.83;74.83;101119.88;6222348;23;20054;-74
2022/03/05 06:16:48;;;;;;;0.00;0.00;;;;;;;3.97;75.00;101129.69;6248714;23;20011;-77
2022/03/05 06:19:21;;;;;;;0.00;0.00;;;;;;;4.07;74.71;101144.69;6221176;23;20020;-74
2022/03/05 06:21:47;;;;;;;0.00;0.00;;;;;;;4.07;74.26;101128.44;6246858;23;20005;-75
2022/03/05 06:24:12;;;;;;;0.00;0.00;;;;;;;4.10;74.15;101136.16;6248548;23;20252;-73
2022/03/05 06:26:38;;;;;;;0.00;0.00;;;;;;;4.12;74.50;101139.50;6221423;23;20026;-75
2022/03/05 06:29:08;;;;;;;0.00;0.00;;;;;;;4.15;74.16;101144.50;6192259;23;20028;-75
2022/03/05 06:31:34;;;;;;;0.00;0.00;;;;;;;4.19;74.52;101145.72;6216856;23;20074;-74
2022/03/05 06:34:02;;;;;;;0.00;0.00;;;;;;;4.26;74.46;101148.47;6218701;23;20041;-72
2022/03/05 06:36:28;;;;;;;0.00;0.00;;;;;;;4.31;74.33;101164.94;6245129;23;20004;-74
2022/03/05 06:38:54;;;;;;;0.00;0.00;;;;;;;4.35;74.17;101167.03;6243009;23;20010;-74
2022/03/05 06:41:19;;;;;;;0.00;0.00;;;;;;;4.42;74.59;101160.78;6218276;23;20338;-74
2022/03/05 06:43:44;;;;;;;0.00;0.00;;;;;;;4.46;73.93;101168.28;6240139;23;20304;-73
2022/03/05 06:46:16;;;;;;;0.00;0.00;;;;;;;4.49;73.74;101164.31;6218608;23;20149;-73
2022/03/05 06:48:48;;;;;;;0.00;0.00;;;;;;;4.58;73.61;101163.06;6244276;23;20071;-72
2022/03/05 06:51:17;;;;;;;0.00;0.00;;;;;;;4.60;73.81;101163.72;6219560;23;20151;-73
2022/03/05 06:53:46;;;;;;;0.00;0.00;;;;;;;4.68;74.02;101168.91;6194093;23;20442;-72
2022/03/05 06:56:14;;;;;;;0.00;0.00;;;;;;;4.69;73.53;101167.88;6246853;23;20059;-74
2022/03/05 06:58:39;;;;;;;0.00;0.00;;;;;;;4.76;74.48;101169.72;6193541;23;20008;-72
2022/03/05 07:01:05;;;;;;;0.00;0.00;;;;;;;4.79;74.43;101180.16;6214508;23;20307;-73
2022/03/05 07:03:30;;;;;;;0.00;0.00;;;;;;;4.78;73.69;101175.78;6239229;23;20004;-71
2022/03/05 07:05:59;;;;;;;0.00;0.00;;;;;;;4.90;73.98;101179.53;6214312;23;20020;-72
2022/03/05 07:08:24;;;;;;;0.00;0.00;;;;;;;4.92;74.06;101177.47;6242880;23;20031;-72
2022/03/05 07:10:50;;;;;;;0.00;0.00;;;;;;;4.94;73.52;101175.34;6168199;23;20008;-73
2022/03/05 07:13:19;;;;;;;0.00;0.00;;;;;;;4.90;73.67;101168.69;6219246;23;20000;-74
2022/03/05 07:15:47;;;;;;;0.00;0.00;;;;;;;4.97;73.70;101183.06;6219489;23;20011;-76
2022/03/05 07:18:12;;;;;;;0.00;0.00;;;;;;;4.97;73.66;101180.34;6217027;23;20012;-73
2022/03/05 07:20:46;;;;;;;0.00;0.00;;;;;;;5.02;73.60;101188.69;6218670;23;20022;-74
2022/03/05 07:23:14;;;;;;;0.00;0.00;;;;;;;5.00;73.56;101185.34;6189739;23;20008;-73
2022/03/05 07:25:48;;;;;;;0.00;0.00;;;;;;;5.04;72.91;101181.19;6191962;23;20047;-73
2022/03/05 07:28:13;;;;;;;0.00;0.00;;;;;;;5.07;73.73;101188.06;6214996;23;20095;-73
2022/03/05 07:30:42;;;;;;;0.00;0.00;;;;;;;5.11;73.82;101186.59;6191998;23;20342;-72
2022/03/05 07:33:08;;;;;;;0.00;0.00;;;;;;;5.18;73.66;101197.41;6214714;23;20015;-73
2022/03/05 07:36:00;;;;;;;0.00;0.00;;;;;;;5.20;73.11;101195.34;6244413;23;20004;-72
2022/03/05 07:38:26;;;;;;;0.00;0.00;;;;;;;5.28;73.78;101208.66;6241344;23;20038;-74
2022/03/05 07:41:04;;;;;;;0.00;0.00;;;;;;;5.29;73.55;101210.34;6191533;23;20004;-72
2022/03/05 07:43:31;;;;;;;0.00;0.00;;;;;;;5.27;72.76;101198.03;6193264;23;20012;-73
2022/03/05 07:45:59;;;;;;;0.00;0.00;;;;;;;5.43;73.54;101213.84;6193477;23;20009;-74
2022/03/05 08:10:37;;;;;;;;;;;;;;;;;;;;;
2022/03/05 08:23:22;;;;;;;0.00;0.00;;;;;;;5.97;72.06;101222.66;5957206;23;20399;-81
2022/03/05 08:25:50;;;;;;;0.00;0.00;;;;;;;6.09;71.65;101210.09;6037661;23;20523;-73
2022/03/05 08:28:21;;;;;;;0.00;0.00;;;;;;;6.33;72.20;101223.94;6111485;23;20600;-72
2022/03/05 08:30:58;;;;;;;0.00;0.00;;;;;;;6.57;71.64;101226.94;6157627;23;20118;-76
2022/03/05 08:33:23;;;;;;;0.00;0.00;;;;;;;6.73;71.35;101231.84;6246843;23;20003;-76
2022/03/05 08:35:58;;;;;;;0.00;0.00;;;;;;;6.86;70.44;101230.06;6269602;23;19999;-77
2022/03/05 08:38:33;;;;;;;;;;;;;;;;;;;;;
2022/03/05 08:41:14;;;;;;;;;;;;;;;;;;;;;
2022/03/05 08:43:42;;;;;;;0.00;0.00;;;;;;;7.18;70.01;101232.72;6230743;23;20036;-75
2022/03/05 08:48:55;;;;;;;0.00;0.00;;;;;;;7.19;68.97;101228.97;6225824;23;20331;-78
2022/03/05 08:51:20;;;;;;;0.00;0.00;;;;;;;7.33;69.14;101235.94;6246830;23;20000;-75
2022/03/05 08:53:55;;;;;;;0.00;0.00;;;;;;;7.48;70.11;101230.94;6245815;23;20027;-75
2022/03/05 08:56:21;;;;;;;0.00;0.00;;;;;;;7.87;70.16;101230.75;6200632;23;20004;-75
2022/03/05 08:58:54;;;;;;;0.00;0.00;;;;;;;8.85;70.18;101228.75;6246630;23;20078;-75
2022/03/05 09:01:47;;;;;;;;;;;;;;;;;;;;;
2022/03/05 09:04:13;;;;;;;0.00;0.00;;;;;;;12.43;63.97;101232.84;6245445;23;20075;-76
2022/03/05 09:06:39;;;;;;;0.00;0.00;;;;;;;13.55;61.71;101245.81;6246996;23;20279;-75
2022/03/05 09:09:50;;;;;;;0.00;0.00;;;;;;;14.57;59.04;101241.78;6249058;23;20003;-75
2022/03/05 09:12:35;;;;;;;;;;;;;;;;;;;;;
2022/03/05 09:15:30;;;;;;;0.00;0.00;;;;;;;16.13;53.74;101244.06;6201218;23;20035;-78
2022/03/05 09:18:14;;;;;;;0.00;0.00;;;;;;;16.84;52.03;101242.78;6223112;23;20370;-75
2022/03/05 09:24:09;;;;;;;;;;;;;;;;;;;;;
2022/03/05 09:26:53;;;;;;;;;;;;;;;;;;;;;
2022/03/05 09:34:41;;;;;;;;;;;;;;;;;;;;;
2022/03/05 09:37:02;;;;;;;0.00;0.00;;;;;;;18.05;42.67;101253.22;6197107;23;20390;-75
2022/03/05 09:43:50;;;;;;;;;;;;;;;;;;;;;
2022/03/05 09:46:37;;;;;;;0.00;0.00;;;;;;;19.84;40.09;101260.59;6181579;23;20076;-74
2022/03/05 09:52:46;;;;;;;0.00;0.00;;;;;;;18.87;38.01;101284.50;6167251;23;20009;-80
2022/03/05 09:55:49;;;;;;;;;;;;;;;;;;;;;
2022/03/05 09:58:50;;;;;;;0.00;0.00;;;;;;;17.30;39.23;101262.84;6181884;23;20173;-75
2022/03/05 10:02:17;;;;;;;;;;;;;;;;;;;;;
2022/03/05 10:05:57;;;;;;;0.00;0.00;;;;;;;17.27;38.37;101295.50;6215515;23;20088;-77
2022/03/05 10:08:55;;;;;;;0.00;0.00;;;;;;;16.54;38.63;101286.06;6070251;23;20054;-75
2022/03/05 10:15:21;;;;;;;0.00;0.00;;;;;;;15.01;40.24;101279.88;6073339;23;20018;-73
2022/03/05 10:18:04;;;;;;;0.00;0.00;;;;;;;14.41;40.62;101277.53;6066061;23;20014;-73
2022/03/05 10:23:50;;;;;;;;;;;;;;;;;;;;;
2022/03/05 10:27:23;;;;;;;0.00;0.00;;;;;;;12.80;43.15;101287.78;6217398;23;20410;-75
2022/03/05 10:40:46;;;;;;;0.00;0.00;;;;;;;10.85;46.97;101280.50;6118207;23;20065;-75
2022/03/05 10:43:19;;;;;;;0.00;0.00;;;;;;;10.63;47.69;101283.94;6119564;23;20444;-72
2022/03/05 10:46:03;;;;;;;0.00;0.00;;;;;;;10.54;48.67;101285.41;6154460;23;20004;-75
2022/03/05 10:48:36;;;;;;;0.00;0.00;;;;;;;10.60;48.74;101300.00;6218251;23;20178;-74
2022/03/05 10:55:09;;;;;;;;;;;;;;;;;;;;;
2022/03/05 10:58:14;;;;;;;0.00;0.00;;;;;;;10.19;49.95;101308.22;6244359;23;20048;-73
2022/03/05 11:04:11;;;;;;;0.00;0.00;;;;;;;10.02;50.40;101296.38;6147502;23;20006;-76
2022/03/05 11:17:16;;;;;;;0.00;0.00;;;;;;;10.26;50.76;101308.06;6122873;23;20080;-77
2022/03/05 11:20:07;;;;;;;;;;;;;;;;;;;;;
2022/03/05 11:22:49;;;;;;;0.15;0.15;;;;;;;10.19;50.88;101301.91;6116038;23;20092;-76
2022/03/05 11:35:52;;;;;;;;;;;;;;;;;;;;;
2022/03/05 11:42:34;;;;;;;0.00;0.00;;;;;;;12.75;49.89;101285.81;5779072;24;20023;-76
2022/03/05 11:45:58;;;;;;;0.00;0.00;;;;;;;12.99;47.55;101282.72;5780696;24;20023;-75
2022/03/05 11:48:24;;;;;;;0.00;0.00;;;;;;;13.44;48.06;101300.69;5848423;24;20491;-75
2022/03/05 11:50:54;;;;;;;0.00;0.00;;;;;;;14.06;48.05;101280.97;5871013;24;20038;-75
2022/03/05 11:53:20;;;;;;;0.00;0.00;;;;;;;15.57;46.68;101286.44;5952460;23;20003;-75
2022/03/05 11:56:24;;;;;;;0.00;0.00;;;;;;;18.25;45.51;101296.41;6073674;23;20552;-75
2022/03/05 11:58:50;;;;;;;0.00;0.00;;;;;;;19.94;42.50;101281.75;6128295;23;20005;-74
2022/03/05 12:01:58;;;;;;;0.00;0.00;;;;;;;20.57;38.57;101298.72;6161282;23;20151;-74
2022/03/05 12:04:31;;;;;;;0.00;0.00;;;;;;;19.64;35.69;101297.84;6065756;23;20010;-74
2022/03/05 12:07:24;;;;;;;;;;;;;;;;;;;;;
2022/03/05 12:10:04;;;;;;;;;;;;;;;;;;;;;
2022/03/05 12:13:05;;;;;;;0.00;0.00;;;;;;;15.56;38.58;101285.59;6189281;23;20083;-73
2022/03/05 12:15:44;;;;;;;0.00;0.00;;;;;;;14.65;39.61;101285.31;6188833;23;20031;-74
2022/03/05 12:18:18;;;;;;;0.00;0.00;;;;;;;14.18;40.94;101294.50;6161600;23;20013;-75
2022/03/05 12:20:51;;;;;;;0.00;0.00;;;;;;;13.69;41.93;101288.22;6184663;23;20008;-74
2022/03/05 12:23:31;;;;;;;0.00;0.00;;;;;;;13.31;42.37;101290.13;6187203;23;20059;-74
2022/03/05 12:26:01;;;;;;;0.00;0.00;;;;;;;12.90;43.28;101287.88;6215091;23;20000;-73
2022/03/05 12:28:44;;;;;;;0.00;0.00;;;;;;;12.70;43.51;101294.00;6186108;23;20477;-73
2022/03/05 12:31:19;;;;;;;1.00;1.00;;;;;;;12.53;44.54;101294.09;6213671;23;20011;-73
2022/03/05 12:33:46;;;;;;;;;;;;;;;12.38;44.90;101292.03;6188821;23;20279;-74
2022/03/05 12:36:16;;;;;;;0.00;0.00;;;;;;;12.20;45.23;101289.59;6213962;22;19911;-73
2022/03/05 12:38:45;;;;;;;0.00;0.00;;;;;;;12.02;44.96;101297.06;6212211;23;20617;-74
2022/03/05 12:41:13;;;;;;;0.00;0.00;;;;;;;11.84;45.48;101286.38;6225133;23;20078;-74
2022/03/05 12:43:43;;;;;;;0.00;0.00;;;;;;;11.67;46.36;101280.94;6193265;23;20035;-75
2022/03/05 12:46:11;;;;;;;0.00;0.00;;;;;;;11.60;46.16;101283.03;6184575;23;20017;-73
2022/03/05 12:48:37;;;;;;;0.00;0.00;;;;;;;11.45;46.76;101272.69;6209390;23;20019;-74
2022/03/05 12:51:05;;;;;;;0.00;0.00;;;;;;;11.34;47.23;101278.00;6206952;23;20008;-74
2022/03/05 12:53:34;;;;;;;0.00;0.00;;;;;;;11.19;47.64;101283.25;6198116;23;19997;-74
2022/03/05 12:56:08;;;;;;;0.00;0.00;;;;;;;10.99;47.04;101287.31;6216290;23;20005;-75
2022/03/05 13:40:06;;;;;;;0.00;0.00;;;;;;;9.98;51.14;101256.94;6043776;23;20029;-74
2022/03/05 14:28:20;;;;;;;;;;;;;;;;;;;;;
2022/03/05 14:31:43;;;;;;;0.00;0.00;;;;;;;10.69;51.58;101243.81;5831882;24;20038;-79
2022/03/05 14:53:20;;;;;;;0.00;0.00;;;;;;;9.61;52.13;101247.97;5928705;24;20835;-75
2022/03/05 14:56:43;;;;;;;;;;;;;;;;;;;;;
2022/03/05 16:16:40;;;;;;;;;;;;;;;;;;;;;
2022/03/05 16:47:25;;;;;;;;;;;;;;;;;;;;;
2022/03/05 16:49:53;;;;;;;0.00;0.00;;;;;;;8.54;52.37;101214.34;6099463;23;20085;-75
2022/03/05 16:52:21;;;;;;;0.00;0.00;;;;;;;8.47;52.27;101204.56;6213455;23;20010;-74
2022/03/05 16:54:49;;;;;;;0.00;0.00;;;;;;;8.56;52.61;101225.81;6318727;22;20033;-76
2022/03/05 16:57:15;;;;;;;0.00;0.00;;;;;;;8.54;52.67;101236.16;6314175;22;20011;-76
2022/03/05 16:59:43;;;;;;;0.00;0.00;;;;;;;8.53;53.08;101229.03;6316275;22;20006;-74
2022/03/05 17:02:08;;;;;;;0.00;0.00;;;;;;;8.60;52.38;101228.94;6319194;22;19999;-72
2022/03/05 17:04:34;;;;;;;0.00;0.00;;;;;;;8.61;52.48;101218.84;6341922;22;20029;-73
2022/03/05 17:07:00;;;;;;;0.00;0.00;;;;;;;8.57;52.75;101229.38;6343470;22;20003;-73
2022/03/05 17:09:26;;;;;;;0.00;0.00;;;;;;;8.52;52.06;101221.91;6339014;22;20006;-77
2022/03/05 17:12:01;;;;;;;;;;;;;;;;;;;;;
2022/03/05 17:14:39;;;;;;;;;;;;;;;;;;;;;
2022/03/05 17:17:23;;;;;;;;;;;;;;;;;;;;;
2022/03/05 17:19:49;;;;;;;0.00;0.00;;;;;;;8.35;52.50;101237.22;6343048;22;20018;-77
2022/03/05 17:22:14;;;;;;;0.00;0.00;;;;;;;8.26;52.24;101233.97;6341640;22;20002;-77
2022/03/05 17:24:40;;;;;;;0.00;0.00;;;;;;;8.17;52.79;101238.91;6340400;22;20003;-74
2022/03/05 17:27:08;;;;;;;0.00;0.00;;;;;;;8.09;52.51;101239.25;6343285;22;20018;-75
2022/03/05 17:29:33;;;;;;;0.00;0.00;;;;;;;8.04;53.43;101230.91;6334126;22;19991;-76
2022/03/05 17:32:01;;;;;;;0.00;0.00;;;;;;;8.02;53.27;101233.06;6363462;22;20097;-75
2022/03/05 17:34:28;;;;;;;0.00;0.00;;;;;;;7.96;52.91;101233.97;6359683;22;20013;-75
2022/03/05 17:36:58;;;;;;;0.00;0.00;;;;;;;7.82;52.80;101223.22;6358262;22;20084;-79
2022/03/05 17:39:24;;;;;;;0.00;0.00;;;;;;;7.80;53.58;101222.63;6345144;22;20082;-74
2022/03/05 17:41:53;;;;;;;0.00;0.00;;;;;;;7.81;53.26;101243.38;6340165;22;20036;-73
2022/03/05 17:44:28;;;;;;;0.00;0.00;;;;;;;7.69;53.38;101228.84;6341097;22;20010;-80
2022/03/05 17:50:05;;;;;;;0.00;0.00;;;;;;;7.55;53.48;101227.31;6321619;22;20042;-74